createdAt,value
2018-06-10T00:00:15.158Z,80.30
2018-06-10T00:05:17.732Z,80.60
2018-06-10T00:10:20.283Z,80.50
2018-06-10T00:15:22.821Z,80.60
2018-06-10T00:20:25.372Z,80.60
2018-06-10T00:25:27.905Z,80.90
2018-06-10T00:30:30.452Z,81.00
2018-06-10T00:35:33.090Z,81.10
2018-06-10T00:40:35.653Z,81.50
2018-06-10T00:45:38.198Z,81.20
2018-06-10T00:50:40.750Z,81.50
2018-06-10T00:55:43.274Z,81.70
2018-06-10T01:00:45.808Z,81.40
2018-06-10T01:10:54.429Z,81.20
2018-06-10T01:15:56.957Z,81.00
2018-06-10T01:20:59.494Z,80.80
2018-06-10T01:26:02.051Z,81.00
2018-06-10T01:31:04.589Z,81.20
2018-06-10T01:36:07.892Z,80.80
2018-06-10T01:41:10.452Z,80.60
2018-06-10T01:46:13.021Z,80.40
2018-06-10T01:51:15.557Z,80.30
2018-06-10T01:56:18.099Z,80.60
2018-06-10T02:01:20.656Z,80.50
2018-06-10T02:06:23.221Z,80.50
2018-06-10T02:11:25.748Z,80.70
2018-06-10T02:16:28.300Z,80.80
2018-06-10T02:21:30.865Z,80.70
2018-06-10T02:26:33.444Z,81.00
2018-06-10T02:31:36.089Z,80.80
2018-06-10T02:36:38.618Z,80.80
2018-06-10T02:41:41.190Z,81.00
2018-06-10T02:46:43.742Z,80.90
2018-06-10T02:51:46.295Z,81.00
2018-06-10T02:56:48.829Z,80.70
2018-06-10T03:01:51.373Z,81.90
2018-06-10T03:06:54.697Z,80.80
2018-06-10T03:11:57.243Z,80.90
2018-06-10T03:16:59.805Z,81.10
2018-06-10T03:22:02.365Z,81.00
2018-06-10T03:27:04.902Z,81.20
2018-06-10T03:32:07.427Z,81.00
2018-06-10T03:37:09.974Z,81.00
2018-06-10T03:42:12.729Z,81.30
2018-06-10T03:47:15.261Z,81.10
2018-06-10T03:52:17.797Z,81.10
2018-06-10T03:57:20.337Z,81.00
2018-06-10T04:02:22.877Z,81.70
2018-06-10T04:07:25.423Z,81.70
2018-06-10T04:12:27.952Z,81.70
2018-06-10T04:17:30.495Z,81.90
2018-06-10T04:22:33.070Z,81.60
2018-06-10T04:27:35.561Z,82.20
2018-06-10T04:32:38.096Z,82.20
2018-06-10T04:37:40.632Z,82.10
2018-06-10T04:42:43.184Z,82.00
2018-06-10T04:47:45.712Z,82.30
2018-06-10T04:52:48.261Z,82.80
2018-06-10T04:57:50.805Z,82.90
2018-06-10T05:02:53.366Z,83.00
2018-06-10T05:07:55.910Z,83.40
2018-06-10T05:12:58.444Z,83.90
2018-06-10T05:18:01.006Z,83.60
2018-06-10T05:23:04.336Z,84.30
2018-06-10T05:28:06.865Z,84.30
2018-06-10T05:33:09.513Z,84.40
2018-06-10T05:38:12.058Z,85.50
2018-06-10T05:43:14.616Z,85.50
2018-06-10T05:48:17.145Z,85.00
2018-06-10T05:53:19.705Z,85.50
2018-06-10T05:58:22.249Z,84.70
2018-06-10T06:03:24.783Z,86.40
2018-06-10T06:08:27.321Z,86.10
2018-06-10T06:13:30.670Z,85.50
2018-06-10T06:18:33.220Z,85.50
2018-06-10T06:23:35.828Z,85.10
2018-06-10T06:28:38.668Z,85.10
2018-06-10T06:33:41.200Z,84.40
2018-06-10T06:38:43.742Z,83.20
2018-06-10T06:43:47.125Z,81.80
2018-06-10T06:48:49.684Z,81.60
2018-06-10T06:53:52.218Z,81.70
2018-06-10T06:58:54.853Z,80.50
2018-06-10T07:03:57.464Z,79.80
2018-06-10T07:09:00.773Z,78.80
2018-06-10T07:14:03.302Z,78.70
2018-06-10T07:19:05.868Z,78.20
2018-06-10T07:24:09.202Z,76.90
2018-06-10T07:29:11.750Z,76.80
2018-06-10T07:34:14.308Z,76.80
2018-06-10T07:39:16.842Z,75.80
2018-06-10T07:44:19.404Z,74.60
2018-06-10T07:49:21.936Z,74.70
2018-06-10T07:54:24.470Z,73.40
2018-06-10T07:59:27.011Z,72.70
2018-06-10T08:04:29.545Z,72.20
2018-06-10T08:09:32.101Z,71.70
2018-06-10T08:14:35.385Z,70.10
2018-06-10T08:19:37.958Z,70.10
2018-06-10T08:24:40.497Z,69.50
2018-06-10T08:29:43.048Z,68.60
2018-06-10T08:34:45.606Z,68.50
2018-06-10T08:39:48.166Z,67.50
2018-06-10T08:44:50.833Z,67.90
2018-06-10T08:49:53.368Z,66.90
2018-06-10T08:54:55.973Z,67.30
2018-06-10T08:59:58.546Z,67.90
2018-06-10T09:05:01.215Z,68.20
2018-06-10T09:10:03.758Z,67.20
2018-06-10T09:15:06.329Z,67.10
2018-06-10T09:20:08.884Z,66.80
2018-06-10T09:25:11.409Z,66.60
2018-06-10T09:30:14.706Z,65.90
2018-06-10T09:35:17.315Z,65.80
2018-06-10T09:40:20.628Z,66.40
2018-06-10T09:45:23.193Z,66.30
2018-06-10T09:50:25.752Z,67.30
2018-06-10T09:55:29.225Z,64.90
2018-06-10T10:00:31.628Z,64.90
2018-06-10T10:05:34.194Z,65.40
2018-06-10T10:10:36.760Z,65.00
2018-06-10T10:15:39.345Z,64.00
2018-06-10T10:20:41.917Z,63.90
2018-06-10T10:25:44.582Z,63.30
2018-06-10T10:30:47.126Z,62.60
2018-06-10T10:35:50.311Z,62.40
2018-06-10T10:40:52.835Z,60.90
2018-06-10T10:45:55.427Z,60.20
2018-06-10T10:50:57.979Z,59.00
2018-06-10T10:56:00.558Z,58.10
2018-06-10T11:01:03.096Z,57.60
2018-06-10T11:06:05.962Z,58.00
2018-06-10T11:11:08.531Z,57.90
2018-06-10T11:16:11.080Z,57.00
2018-06-10T11:21:13.624Z,56.80
2018-06-10T11:26:16.166Z,56.60
2018-06-10T11:31:18.701Z,56.30
2018-06-10T11:36:21.253Z,54.90
2018-06-10T11:41:23.791Z,55.30
2018-06-10T11:46:26.353Z,54.80
2018-06-10T11:51:28.882Z,54.60
2018-06-10T11:56:32.255Z,55.10
2018-06-10T12:01:34.798Z,54.90
2018-06-10T12:06:38.109Z,54.80
2018-06-10T12:11:40.656Z,54.80
2018-06-10T12:16:43.286Z,54.60
2018-06-10T12:21:45.828Z,52.80
2018-06-10T12:26:48.362Z,52.20
2018-06-10T12:31:50.901Z,51.20
2018-06-10T12:36:53.445Z,51.70
2018-06-10T12:41:55.982Z,50.20
2018-06-10T12:46:58.544Z,51.10
2018-06-10T12:52:01.077Z,50.00
2018-06-10T12:57:03.652Z,50.50
2018-06-10T13:02:07.157Z,50.30
2018-06-10T13:07:10.240Z,49.80
2018-06-10T13:12:13.785Z,50.00
2018-06-10T13:17:16.329Z,49.80
2018-06-10T13:22:18.869Z,50.40
2018-06-10T13:27:22.196Z,49.30
2018-06-10T13:32:24.749Z,49.30
2018-06-10T13:37:27.309Z,49.90
2018-06-10T13:42:29.844Z,50.30
2018-06-10T13:47:33.219Z,50.70
2018-06-10T13:52:35.753Z,49.00
2018-06-10T13:57:38.307Z,48.80
2018-06-10T14:02:40.924Z,50.10
2018-06-10T14:07:43.452Z,48.90
2018-06-10T14:12:46.018Z,47.30
2018-06-10T14:17:48.556Z,47.80
2018-06-10T14:22:51.108Z,46.60
2018-06-10T14:27:53.651Z,47.90
2018-06-10T14:32:56.200Z,48.50
2018-06-10T14:37:58.838Z,48.50
2018-06-10T14:43:02.361Z,49.10
2018-06-10T14:48:04.968Z,49.10
2018-06-10T14:53:07.488Z,48.40
2018-06-10T14:58:10.032Z,47.90
2018-06-10T15:03:12.582Z,47.90
2018-06-10T15:08:15.113Z,47.40
2018-06-10T15:13:17.674Z,47.20
2018-06-10T15:18:20.237Z,45.80
2018-06-10T15:23:22.789Z,46.50
2018-06-10T15:28:25.325Z,46.60
2018-06-10T15:33:27.865Z,46.90
2018-06-10T15:38:30.429Z,46.70
2018-06-10T15:43:33.737Z,46.40
2018-06-10T15:48:38.128Z,46.40
2018-06-10T15:53:40.665Z,46.90
2018-06-10T15:58:43.197Z,45.70
2018-06-10T16:03:45.737Z,47.30
2018-06-10T16:08:48.275Z,47.50
2018-06-10T16:13:50.810Z,47.40
2018-06-10T16:18:53.345Z,47.90
2018-06-10T16:23:55.881Z,48.40
2018-06-10T16:28:58.466Z,48.70
2018-06-10T16:34:01.798Z,49.40
2018-06-10T16:39:05.097Z,48.90
2018-06-10T16:44:08.413Z,48.90
2018-06-10T16:49:11.034Z,48.90
2018-06-10T16:54:13.553Z,50.00
2018-06-10T16:59:16.081Z,50.60
2018-06-10T17:04:18.676Z,52.50
2018-06-10T17:09:21.649Z,53.60
2018-06-10T17:14:24.214Z,54.20
2018-06-10T17:19:26.824Z,54.10
2018-06-10T17:24:30.172Z,54.90
2018-06-10T17:29:32.681Z,54.90
2018-06-10T17:34:35.295Z,55.00
2018-06-10T17:39:37.835Z,55.10
2018-06-10T17:44:40.369Z,55.30
2018-06-10T17:49:42.933Z,55.50
2018-06-10T17:54:45.469Z,56.30
2018-06-10T17:59:48.012Z,55.90
2018-06-10T18:04:50.578Z,55.60
2018-06-10T18:09:53.114Z,55.70
2018-06-10T18:14:55.756Z,56.20
2018-06-10T18:25:08.348Z,57.20
2018-06-10T18:30:10.892Z,57.70
2018-06-10T18:35:13.435Z,57.90
2018-06-10T18:40:15.979Z,58.40
2018-06-10T18:45:18.507Z,58.80
2018-06-10T18:50:21.144Z,59.10
2018-06-10T18:55:24.608Z,59.90
2018-06-10T19:00:27.136Z,59.90
2018-06-10T19:05:29.712Z,60.40
2018-06-10T19:10:32.286Z,60.70
2018-06-10T19:15:34.821Z,61.10
2018-06-10T19:20:37.357Z,61.60
2018-06-10T19:25:39.889Z,61.70
2018-06-10T19:30:42.413Z,61.90
2018-06-10T19:35:44.943Z,62.10
2018-06-10T19:40:47.504Z,62.60
2018-06-10T19:45:50.188Z,63.40
2018-06-10T19:50:53.460Z,63.30
2018-06-10T19:55:56.017Z,63.30
2018-06-10T20:00:58.536Z,63.30
2018-06-10T20:06:01.096Z,63.80
2018-06-10T20:11:03.637Z,64.10
2018-06-10T20:16:06.172Z,64.20
2018-06-10T20:21:08.732Z,64.00
2018-06-10T20:26:11.261Z,64.40
2018-06-10T20:31:14.580Z,64.50
2018-06-10T20:36:17.865Z,65.20
2018-06-10T20:41:20.412Z,65.20
2018-06-10T20:46:23.049Z,64.90
2018-06-10T20:51:25.583Z,65.10
2018-06-10T20:56:28.116Z,65.40
2018-06-10T21:01:30.672Z,65.60
2018-06-10T21:06:33.188Z,65.80
2018-06-10T21:11:35.752Z,66.50
2018-06-10T21:16:38.301Z,66.30
2018-06-10T21:21:40.852Z,66.50
2018-06-10T21:26:43.379Z,66.60
2018-06-10T21:31:46.671Z,67.60
2018-06-10T21:36:49.215Z,67.60
2018-06-10T21:41:51.756Z,67.90
2018-06-10T21:46:54.312Z,67.60
2018-06-10T21:51:56.944Z,67.50
2018-06-10T21:56:59.469Z,67.80
2018-06-10T22:02:02.007Z,68.00
2018-06-10T22:07:04.540Z,67.90
2018-06-10T22:12:07.064Z,68.60
2018-06-10T22:17:09.592Z,68.90
2018-06-10T22:22:12.124Z,69.30
2018-06-10T22:27:14.675Z,69.60
2018-06-10T22:32:17.201Z,69.80
2018-06-10T22:37:19.727Z,69.80
2018-06-10T22:42:22.276Z,69.90
2018-06-10T22:47:25.586Z,70.70
2018-06-10T22:52:28.119Z,70.70
2018-06-10T22:57:30.684Z,70.90
2018-06-10T23:02:33.224Z,71.10
2018-06-10T23:07:35.743Z,71.30
2018-06-10T23:12:38.279Z,71.50
2018-06-10T23:17:41.572Z,71.80
2018-06-10T23:22:44.103Z,71.70
2018-06-10T23:27:46.665Z,72.00
2018-06-10T23:32:49.200Z,72.20
2018-06-10T23:37:51.731Z,72.50
2018-06-10T23:42:54.277Z,72.60
2018-06-10T23:47:56.807Z,72.60
2018-06-10T23:52:59.364Z,72.30
2018-06-10T23:58:02.101Z,73.00
